createdAt,value
2022-10-01T00:03:50.201Z,0
2022-10-01T00:09:15.561Z,0
2022-10-01T00:14:37.843Z,0
2022-10-01T00:20:00.142Z,0
2022-10-01T00:25:22.740Z,0
2022-10-01T00:36:10.667Z,0
2022-10-01T00:41:33.593Z,0
2022-10-01T00:46:57.569Z,0
2022-10-01T00:52:22.735Z,0
2022-10-01T00:57:48.011Z,0
2022-10-01T01:03:10.450Z,0
2022-10-01T01:08:33.014Z,0
2022-10-01T01:13:55.149Z,0
2022-10-01T01:19:17.535Z,0
2022-10-01T01:24:43.246Z,0
2022-10-01T01:30:05.539Z,0
2022-10-01T01:35:28.136Z,0
2022-10-01T01:40:54.137Z,0
2022-10-01T01:46:16.624Z,0
2022-10-01T01:51:42.369Z,0
2022-10-01T01:57:04.735Z,0
2022-10-01T02:02:27.319Z,0
2022-10-01T02:07:53.614Z,0
2022-10-01T02:13:21.858Z,0
2022-10-01T02:24:08.415Z,0
2022-10-01T02:29:30.741Z,0
2022-10-01T02:34:54.674Z,0
2022-10-01T02:40:17.360Z,0
2022-10-01T02:45:42.762Z,0
2022-10-01T02:51:05.785Z,0
2022-10-01T02:56:28.285Z,0
2022-10-01T03:01:51.043Z,0
2022-10-01T03:07:37.970Z,0
2022-10-01T03:13:00.527Z,0
2022-10-01T03:18:22.950Z,0
2022-10-01T03:23:45.472Z,0
2022-10-01T03:29:07.769Z,0
2022-10-01T03:34:30.236Z,0
2022-10-01T03:39:58.437Z,0
2022-10-01T03:45:24.011Z,0
2022-10-01T03:56:08.772Z,0
2022-10-01T04:01:34.842Z,0
2022-10-01T04:07:01.648Z,0
2022-10-01T04:12:26.772Z,0
2022-10-01T04:17:49.356Z,0
2022-10-01T04:23:11.982Z,0
2022-10-01T04:28:34.280Z,0
2022-10-01T04:33:59.627Z,0
2022-10-01T04:39:59.889Z,0
2022-10-01T04:45:22.501Z,0
2022-10-01T04:50:47.694Z,0
2022-10-01T04:56:10.138Z,0
2022-10-01T05:01:32.776Z,0
2022-10-01T05:06:56.989Z,0
2022-10-01T05:12:24.528Z,0
2022-10-01T05:17:50.476Z,0
2022-10-01T05:23:12.852Z,0
2022-10-01T05:33:47.428Z,0
2022-10-01T05:39:15.550Z,0
2022-10-01T05:44:38.080Z,0
2022-10-01T05:50:00.531Z,0
2022-10-01T05:55:22.820Z,0
2022-10-01T06:00:48.511Z,0.1
2022-10-01T06:06:11.171Z,0
2022-10-01T06:11:33.819Z,0
2022-10-01T06:16:59.814Z,0.1
2022-10-01T06:22:22.148Z,0.1
2022-10-01T06:27:44.737Z,0.1
2022-10-01T06:33:07.792Z,0.1
2022-10-01T06:38:32.695Z,0.1
2022-10-01T06:43:55.322Z,0.1
2022-10-01T06:49:18.027Z,0.2
2022-10-01T06:54:40.631Z,0.2
2022-10-01T07:00:14.121Z,0.3
2022-10-01T07:05:36.878Z,0.4
2022-10-01T07:10:59.325Z,0.4
2022-10-01T07:16:21.912Z,0.5
2022-10-01T07:22:02.371Z,0.5
2022-10-01T07:27:24.932Z,0.4
2022-10-01T07:32:47.532Z,0.3
2022-10-01T07:38:10.176Z,0.3
2022-10-01T07:43:32.579Z,0.4
2022-10-01T07:48:55.285Z,0.5
2022-10-01T07:54:18.063Z,0.4
2022-10-01T07:59:40.488Z,0.3
2022-10-01T08:05:03.097Z,0.3
2022-10-01T08:10:27.913Z,0.2
2022-10-01T08:15:50.653Z,0.5
2022-10-01T08:21:13.746Z,0.5
2022-10-01T08:26:39.547Z,0.7
2022-10-01T08:32:02.165Z,0.7
2022-10-01T08:37:34.599Z,1.4
2022-10-01T08:42:57.201Z,0.9
2022-10-01T08:48:26.987Z,1
2022-10-01T08:53:50.363Z,1.1
2022-10-01T08:59:14.581Z,1.3
2022-10-01T09:04:38.912Z,0.9
2022-10-01T09:10:24.613Z,1.8
2022-10-01T09:15:46.786Z,0.7
2022-10-01T09:21:50.615Z,2.2
2022-10-01T09:27:12.846Z,1.1
2022-10-01T09:32:35.623Z,7.1
2022-10-01T09:38:00.252Z,2.8
2022-10-01T09:43:26.441Z,4.7
2022-10-01T09:59:23.991Z,5.6
2022-10-01T10:04:47.645Z,5.4
2022-10-01T10:10:10.191Z,5.7
2022-10-01T10:15:45.846Z,5.9
2022-10-01T10:21:09.401Z,0.9
2022-10-01T10:26:29.989Z,1.1
2022-10-01T10:31:55.735Z,1.4
2022-10-01T10:37:19.739Z,6.9
2022-10-01T10:42:43.563Z,2.8
2022-10-01T10:48:05.845Z,2.4
2022-10-01T10:54:05.619Z,6
2022-10-01T10:59:26.364Z,1.7
2022-10-01T11:04:48.469Z,7.3
2022-10-01T11:10:12.805Z,1.6
2022-10-01T11:15:37.452Z,6.4
2022-10-01T11:21:01.364Z,6.2
2022-10-01T11:26:24.240Z,2.5
2022-10-01T11:31:46.352Z,2.9
2022-10-01T11:37:11.236Z,6.8
2022-10-01T11:42:33.802Z,1.1
2022-10-01T11:47:54.967Z,1.7
2022-10-01T11:53:20.545Z,6.3
2022-10-01T11:58:45.779Z,6.4
2022-10-01T12:04:07.228Z,5.1
2022-10-01T12:09:34.224Z,6.7
2022-10-01T12:14:57.332Z,7.2
2022-10-01T12:20:18.229Z,1.7
2022-10-01T12:25:41.204Z,6.3
2022-10-01T12:31:04.471Z,7.1
2022-10-01T12:36:27.863Z,6.5
2022-10-01T12:42:10.591Z,0.9
2022-10-01T12:47:32.492Z,5.2
2022-10-01T12:52:55.326Z,2.6
2022-10-01T12:58:18.648Z,1.1
2022-10-01T13:03:46.118Z,6.1
2022-10-01T13:20:04.185Z,4.3
2022-10-01T13:25:26.899Z,3.7
2022-10-01T13:30:49.268Z,4.5
2022-10-01T13:36:12.053Z,4.3
2022-10-01T13:41:35.579Z,3.7
2022-10-01T13:46:59.228Z,3.9
2022-10-01T13:52:22.533Z,4.9
2022-10-01T13:57:45.543Z,4.8
2022-10-01T14:03:12.237Z,4.9
2022-10-01T14:08:35.472Z,4.8
2022-10-01T14:13:58.496Z,4.5
2022-10-01T14:19:19.767Z,3.4
2022-10-01T14:24:42.682Z,4.6
2022-10-01T14:30:06.481Z,4.3
2022-10-01T14:35:29.256Z,3.8
2022-10-01T14:40:55.155Z,0.5
2022-10-01T14:46:15.877Z,2.8
2022-10-01T14:51:40.687Z,1.2
2022-10-01T15:02:23.705Z,0.4
2022-10-01T15:07:46.111Z,0.6
2022-10-01T15:13:09.287Z,0.3
2022-10-01T15:18:31.612Z,0.2
2022-10-01T15:23:55.591Z,0.4
2022-10-01T15:29:19.292Z,0.3
2022-10-01T15:34:41.778Z,0.2
2022-10-01T15:40:04.174Z,0.4
2022-10-01T15:45:26.769Z,0.3
2022-10-01T15:50:59.934Z,0.2
2022-10-01T15:56:23.306Z,0.2
2022-10-01T16:01:45.778Z,0.1
2022-10-01T16:07:08.967Z,0.1
2022-10-01T16:12:32.182Z,0.1
2022-10-01T16:18:05.140Z,0.1
2022-10-01T16:23:27.637Z,0.1
2022-10-01T16:39:26.461Z,0.1
2022-10-01T16:44:58.063Z,0.1
2022-10-01T16:50:23.837Z,0.1
2022-10-01T16:55:55.465Z,0.1
2022-10-01T17:01:18.750Z,0.1
2022-10-01T17:06:43.915Z,0.1
2022-10-01T17:12:06.153Z,0
2022-10-01T17:17:31.480Z,0
2022-10-01T17:22:54.145Z,0
2022-10-01T17:28:16.805Z,0
2022-10-01T17:33:42.452Z,0
2022-10-01T17:39:04.893Z,0
2022-10-01T17:44:35.033Z,0
2022-10-01T17:49:58.054Z,0
2022-10-01T17:55:20.715Z,0
2022-10-01T18:00:43.242Z,0
2022-10-01T18:06:06.454Z,0
2022-10-01T18:11:29.075Z,0
2022-10-01T18:22:01.680Z,0
2022-10-01T18:27:29.837Z,0
2022-10-01T18:32:58.887Z,0
2022-10-01T18:38:21.194Z,0
2022-10-01T18:43:43.759Z,0
2022-10-01T18:49:06.191Z,0
2022-10-01T18:54:29.054Z,0
2022-10-01T18:59:51.921Z,0
2022-10-01T19:05:15.014Z,0
2022-10-01T19:10:39.236Z,0
2022-10-01T19:16:02.364Z,0
2022-10-01T19:21:25.518Z,0
2022-10-01T19:26:48.169Z,0
2022-10-01T19:32:16.619Z,0
2022-10-01T19:37:39.157Z,0
2022-10-01T19:43:01.793Z,0
2022-10-01T19:48:24.350Z,0
2022-10-01T19:59:09.140Z,0
2022-10-01T20:04:34.190Z,0
2022-10-01T20:09:57.478Z,0
2022-10-01T20:21:00.700Z,0
2022-10-01T20:26:23.186Z,0
2022-10-01T20:31:46.329Z,0
2022-10-01T20:37:09.252Z,0
2022-10-01T20:42:32.601Z,0
2022-10-01T20:47:56.019Z,0
2022-10-01T20:53:21.336Z,0
2022-10-01T21:04:03.878Z,0
2022-10-01T21:09:26.546Z,0
2022-10-01T21:14:48.975Z,0
2022-10-01T21:20:11.466Z,0
2022-10-01T21:25:37.092Z,0
2022-10-01T21:31:02.460Z,0
2022-10-01T21:36:24.834Z,0
2022-10-01T21:41:53.894Z,0
2022-10-01T21:47:16.389Z,0
2022-10-01T21:52:39.035Z,0
2022-10-01T21:58:01.984Z,0
2022-10-01T22:03:24.379Z,0
2022-10-01T22:08:47.226Z,0
2022-10-01T22:14:10.008Z,0
2022-10-01T22:19:32.577Z,0
2022-10-01T22:24:56.443Z,0
2022-10-01T22:30:18.937Z,0
2022-10-01T22:35:41.507Z,0
2022-10-01T22:41:06.959Z,0
2022-10-01T22:46:29.378Z,0
2022-10-01T22:51:51.829Z,0
2022-10-01T22:57:24.907Z,0
2022-10-01T23:02:47.085Z,0
2022-10-01T23:08:09.630Z,0
2022-10-01T23:13:32.028Z,0
2022-10-01T23:18:58.434Z,0
2022-10-01T23:24:29.297Z,0
2022-10-01T23:29:54.121Z,0
2022-10-01T23:35:16.745Z,0
2022-10-01T23:40:39.076Z,0
2022-10-01T23:51:23.922Z,0
2022-10-01T23:56:46.417Z,0
